Time;durP1;ratioP1;P1;durP2;ratioP2;P2;SDS_P1;SDS_P2;PMS_P1;PMS_P2;Temp;Humidity;BMP_temperature;BMP_pressure;BME280_temperature;BME280_humidity;BME280_pressure;Samples;Min_cycle;Max_cycle;Signal;HPM_P1;HPM_P2
2022/10/27 00:01:49;;;;;;;49.38;25.50;;;;;;;16.31;100.00;100604.63;5081530;28;20032;-77
2022/10/27 00:04:14;;;;;;;38.40;23.52;;;;;;;16.35;100.00;100605.97;5083029;28;20036;-77
2022/10/27 00:06:40;;;;;;;49.05;25.00;;;;;;;16.32;100.00;100607.09;5079586;28;20056;-77
2022/10/27 00:09:06;;;;;;;48.38;28.35;;;;;;;16.30;100.00;100608.28;5082974;28;20065;-77
2022/10/27 00:11:31;;;;;;;43.05;26.08;;;;;;;16.25;100.00;100610.56;5082706;28;20038;-77
2022/10/27 00:13:57;;;;;;;39.17;24.65;;;;;;;16.24;100.00;100614.22;5081509;28;20036;-77
2022/10/27 00:16:22;;;;;;;40.13;24.58;;;;;;;16.23;100.00;100617.84;5081576;28;20028;-77
2022/10/27 00:18:47;;;;;;;42.67;25.98;;;;;;;16.22;100.00;100624.16;5082606;28;20089;-77
2022/10/27 00:21:16;;;;;;;43.88;25.75;;;;;;;16.21;100.00;100619.81;5080410;28;20379;-76
2022/10/27 00:23:42;;;;;;;41.85;25.75;;;;;;;16.21;100.00;100619.81;5082324;28;20044;-76
2022/10/27 00:26:11;;;;;;;38.17;24.20;;;;;;;16.23;100.00;100617.84;5079994;28;20044;-78
2022/10/27 00:28:37;;;;;;;40.40;24.88;;;;;;;16.24;100.00;100633.69;5075643;28;20032;-77
2022/10/27 00:31:11;;;;;;;44.88;25.30;;;;;;;16.26;100.00;100633.50;5083011;28;20111;-77
2022/10/27 00:33:36;;;;;;;46.65;25.60;;;;;;;16.02;100.00;100635.97;5079501;28;20028;-77
2022/10/27 00:36:07;;;;;;;39.53;24.38;;;;;;;16.00;100.00;100644.09;5064757;28;20089;-77
2022/10/27 00:38:33;;;;;;;38.75;24.05;;;;;;;16.09;100.00;100645.00;5079545;28;20108;-77
2022/10/27 00:40:59;;;;;;;40.65;22.75;;;;;;;16.13;100.00;100649.06;5082543;28;20500;-77
2022/10/27 00:43:27;;;;;;;44.25;24.23;;;;;;;16.13;100.00;100655.22;5081292;28;20051;-77
2022/10/27 00:45:55;;;;;;;44.17;23.60;;;;;;;16.07;100.00;100660.31;5082086;28;20031;-77
2022/10/27 00:48:23;;;;;;;38.88;22.73;;;;;;;15.92;100.00;100655.50;5081794;28;20036;-76
2022/10/27 00:50:48;;;;;;;43.03;25.17;;;;;;;15.71;100.00;100656.75;5083046;28;20456;-75
2022/10/27 00:53:14;;;;;;;42.42;24.75;;;;;;;15.77;100.00;100658.84;5080463;28;20043;-76
2022/10/27 00:55:40;;;;;;;41.83;24.60;;;;;;;15.80;100.00;100658.53;5082670;28;20040;-76
2022/10/27 00:58:09;;;;;;;39.53;24.15;;;;;;;15.86;100.00;100658.75;5077937;28;20056;-76
2022/10/27 01:00:38;;;;;;;40.30;24.08;;;;;;;15.86;100.00;100658.75;5080469;28;20362;-77
2022/10/27 01:03:06;;;;;;;40.53;23.13;;;;;;;15.94;100.00;100666.00;5077758;28;20032;-76
2022/10/27 01:05:33;;;;;;;35.55;22.10;;;;;;;16.02;100.00;100667.94;5082096;28;20036;-76
2022/10/27 01:08:01;;;;;;;35.13;22.13;;;;;;;16.07;100.00;100665.66;5081225;28;20031;-77
2022/10/27 01:10:27;;;;;;;44.60;23.20;;;;;;;16.07;100.00;100677.13;5081543;28;20099;-77
2022/10/27 01:12:53;;;;;;;42.00;23.38;;;;;;;16.08;100.00;100672.66;5081732;28;20138;-75
2022/10/27 01:15:26;;;;;;;41.97;23.83;;;;;;;16.04;100.00;100672.09;5083463;28;20070;-74
2022/10/27 01:18:00;;;;;;;42.45;24.10;;;;;;;16.10;100.00;100670.66;5086492;28;20043;-75
2022/10/27 01:20:58;;;;;;;39.55;23.27;;;;;;;16.14;100.00;100678.19;5085884;28;20064;-75
2022/10/27 01:23:35;;;;;;;40.35;22.17;;;;;;;16.15;100.00;100681.69;5083922;28;20036;-76
2022/10/27 01:26:37;;;;;;;34.97;22.05;;;;;;;16.14;100.00;100682.69;5084647;28;20031;-75
2022/10/27 01:29:08;;;;;;;44.25;23.02;;;;;;;16.10;100.00;100691.94;5086281;28;20040;-76
2022/10/27 01:31:42;;;;;;;34.25;21.98;;;;;;;16.06;100.00;100685.25;5070791;28;20044;-76
2022/10/27 01:34:41;;;;;;;35.10;21.33;;;;;;;16.02;100.00;100676.75;5080395;28;20475;-75
2022/10/27 01:37:27;;;;;;;35.67;21.95;;;;;;;16.01;100.00;100676.91;5056366;28;20494;-76
2022/10/27 01:40:28;;;;;;;35.38;22.42;;;;;;;15.98;100.00;100678.84;5084335;28;20042;-76
2022/10/27 01:43:02;;;;;;;35.00;21.15;;;;;;;15.96;100.00;100680.00;5071796;28;20055;-76
2022/10/27 01:45:32;;;;;;;33.47;21.75;;;;;;;15.92;100.00;100684.78;5084024;28;20052;-75
2022/10/27 01:47:58;;;;;;;30.93;21.03;;;;;;;15.91;100.00;100667.13;5085301;28;20115;-75
2022/10/27 01:50:32;;;;;;;36.80;22.70;;;;;;;15.91;100.00;100669.78;5066642;28;20024;-75
2022/10/27 01:52:58;;;;;;;35.05;22.00;;;;;;;15.90;100.00;100665.44;5084790;28;20032;-76
2022/10/27 01:55:43;;;;;;;36.58;21.13;;;;;;;15.93;100.00;100670.50;5066869;28;20043;-75
2022/10/27 01:58:20;;;;;;;40.50;22.38;;;;;;;15.92;100.00;100663.50;5044685;28;20041;-75
2022/10/27 02:00:55;;;;;;;33.25;21.73;;;;;;;15.90;100.00;100670.78;5079856;28;20040;-76
2022/10/27 02:03:32;;;;;;;35.28;20.58;;;;;;;15.88;100.00;100683.41;5084603;28;20048;-76
2022/10/27 02:06:35;;;;;;;33.38;21.17;;;;;;;15.85;100.00;100678.38;5066701;28;20051;-75
2022/10/27 02:09:15;;;;;;;39.05;20.90;;;;;;;15.80;100.00;100675.31;5080764;28;20494;-76
2022/10/27 02:11:44;;;;;;;34.17;20.48;;;;;;;15.79;100.00;100678.97;5078299;28;20473;-76
2022/10/27 02:14:11;;;;;;;33.63;19.33;;;;;;;15.77;100.00;100675.63;5078265;28;20033;-75
2022/10/27 02:16:44;;;;;;;32.50;20.80;;;;;;;15.75;100.00;100682.94;5085265;28;20024;-75
2022/10/27 02:19:32;;;;;;;33.60;21.50;;;;;;;15.72;100.00;100677.06;5060531;28;20389;-75
2022/10/27 02:22:00;;;;;;;33.10;21.42;;;;;;;15.72;100.00;100683.25;5083043;28;20027;-74
2022/10/27 02:24:26;;;;;;;34.20;21.00;;;;;;;15.72;100.00;100682.41;5065565;28;20048;-75
2022/10/27 02:27:12;;;;;;;35.70;21.70;;;;;;;15.68;100.00;100681.84;5082923;28;20162;-76
2022/10/27 02:29:46;;;;;;;36.10;21.38;;;;;;;15.57;100.00;100682.03;5059400;28;20039;-75
2022/10/27 02:32:18;;;;;;;33.67;21.50;;;;;;;15.52;100.00;100686.97;5078418;28;20029;-76
2022/10/27 02:34:46;;;;;;;33.70;21.33;;;;;;;15.47;100.00;100689.19;5078569;28;20047;-76
2022/10/27 02:37:19;;;;;;;37.35;22.65;;;;;;;15.42;100.00;100683.50;5085385;28;20081;-76
2022/10/27 02:39:44;;;;;;;36.17;22.45;;;;;;;15.42;100.00;100691.47;5081505;28;20444;-76
2022/10/27 02:42:10;;;;;;;33.90;22.25;;;;;;;15.43;100.00;100687.81;5081939;28;20029;-76
2022/10/27 02:44:35;;;;;;;41.50;24.08;;;;;;;15.44;100.00;100697.47;5084115;28;20096;-75
2022/10/27 02:47:00;;;;;;;37.92;23.33;;;;;;;15.46;100.00;100699.00;5082525;28;20498;-75
2022/10/27 02:49:26;;;;;;;38.83;22.83;;;;;;;15.49;100.00;100703.19;5083420;28;20054;-75
2022/10/27 02:51:51;;;;;;;47.35;24.10;;;;;;;15.51;100.00;100696.72;5065505;28;20032;-76
2022/10/27 02:54:17;;;;;;;46.97;25.35;;;;;;;15.50;100.00;100692.41;5082089;28;20069;-76
2022/10/27 02:56:42;;;;;;;43.03;25.35;;;;;;;15.47;100.00;100695.34;5084807;28;20028;-76
2022/10/27 02:59:07;;;;;;;38.08;24.00;;;;;;;15.46;100.00;100687.53;5059237;28;20072;-75
2022/10/27 03:01:33;;;;;;;40.45;24.73;;;;;;;15.44;100.00;100694.78;5083666;28;20027;-75
2022/10/27 03:03:58;;;;;;;39.67;24.50;;;;;;;15.43;100.00;100693.16;5082333;28;20039;-76
2022/10/27 03:06:24;;;;;;;43.15;25.67;;;;;;;15.42;100.00;100691.47;5083062;28;20043;-76
2022/10/27 03:08:49;;;;;;;41.25;25.58;;;;;;;15.40;100.00;100691.59;5083373;28;20028;-74
2022/10/27 03:11:14;;;;;;;49.40;29.70;;;;;;;15.39;100.00;100686.41;5081644;28;20028;-77
2022/10/27 03:13:40;;;;;;;48.53;26.30;;;;;;;15.40;100.00;100693.41;5066305;28;20090;-76
2022/10/27 03:16:06;;;;;;;41.10;25.80;;;;;;;15.40;100.00;100693.41;5081060;28;20031;-75
2022/10/27 03:18:31;;;;;;;44.08;26.95;;;;;;;15.42;100.00;100694.13;5080880;28;20070;-76
2022/10/27 03:20:57;;;;;;;40.20;25.42;;;;;;;15.44;100.00;100700.13;5083257;28;20021;-75
2022/10/27 03:23:22;;;;;;;47.95;27.25;;;;;;;15.44;100.00;100706.28;5083146;28;20036;-75
2022/10/27 03:25:48;;;;;;;45.45;26.00;;;;;;;15.42;100.00;100702.09;5081823;28;20039;-75
2022/10/27 03:28:13;;;;;;;44.20;25.75;;;;;;;15.43;100.00;100703.78;5067053;28;20078;-76
2022/10/27 03:30:39;;;;;;;46.58;27.85;;;;;;;15.45;100.00;100704.47;5080714;28;20025;-76
2022/10/27 03:33:04;;;;;;;43.25;27.05;;;;;;;15.48;100.00;100706.84;5083947;28;20024;-76
2022/10/27 03:35:30;;;;;;;41.20;26.63;;;;;;;15.51;100.00;100709.19;5082256;28;20043;-75
2022/10/27 03:37:57;;;;;;;45.13;26.30;;;;;;;15.47;100.00;100710.47;5082079;28;20040;-75
2022/10/27 03:40:24;;;;;;;43.42;27.67;;;;;;;15.38;100.00;100706.03;5083355;28;20063;-75
2022/10/27 03:42:49;;;;;;;54.42;29.65;;;;;;;15.25;100.00;100710.84;5083476;28;20044;-76
2022/10/27 03:45:16;;;;;;;54.55;29.10;;;;;;;15.24;100.00;100709.16;5083200;28;20024;-75
2022/10/27 03:47:41;;;;;;;45.35;28.95;;;;;;;15.20;100.00;100713.09;5085926;28;20059;-76
2022/10/27 03:50:07;;;;;;;49.03;29.30;;;;;;;15.20;100.00;100707.78;5082561;28;20342;-75
2022/10/27 03:52:33;;;;;;;54.65;29.30;;;;;;;15.16;100.00;100708.06;5084633;28;20044;-75
2022/10/27 03:54:58;;;;;;;50.42;29.77;;;;;;;15.10;100.00;100711.28;5084677;28;20031;-76
2022/10/27 03:57:24;;;;;;;48.92;28.33;;;;;;;14.98;100.00;100714.25;5082724;28;20086;-77
2022/10/27 03:59:49;;;;;;;54.15;27.88;;;;;;;14.92;100.00;100718.31;5063122;28;20040;-75
2022/10/27 04:02:16;;;;;;;51.58;28.52;;;;;;;14.94;100.00;100724.34;5083083;28;20038;-76
2022/10/27 04:04:42;;;;;;;48.05;29.40;;;;;;;14.95;100.00;100718.06;5079580;28;20052;-75
2022/10/27 04:07:08;;;;;;;55.45;28.98;;;;;;;14.90;100.00;100722.97;5076263;28;20047;-76
2022/10/27 04:09:34;;;;;;;53.83;29.52;;;;;;;14.90;100.00;100722.97;5082636;28;20024;-75
2022/10/27 04:11:59;;;;;;;52.53;29.50;;;;;;;14.89;100.00;100721.28;5081348;28;20375;-75
2022/10/27 04:14:25;;;;;;;50.28;27.65;;;;;;;14.90;100.00;100719.47;5081693;28;20158;-75
2022/10/27 04:16:50;;;;;;;47.22;26.73;;;;;;;14.89;100.00;100725.75;5082348;28;20112;-74
2022/10/27 04:19:19;;;;;;;43.42;25.23;;;;;;;14.79;100.00;100725.75;5080210;28;20080;-75
2022/10/27 04:21:46;;;;;;;49.53;26.95;;;;;;;14.67;100.00;100734.84;5082661;28;20110;-75
2022/10/27 04:24:11;;;;;;;49.83;28.45;;;;;;;14.66;100.00;100719.91;5079674;28;20028;-75
2022/10/27 04:26:37;;;;;;;48.17;28.25;;;;;;;14.72;100.00;100724.66;5082944;28;20024;-75
2022/10/27 04:29:03;;;;;;;48.47;28.30;;;;;;;14.68;100.00;100733.88;5080750;28;20063;-74
2022/10/27 04:31:29;;;;;;;45.33;27.13;;;;;;;14.58;100.00;100733.88;5082056;28;20063;-74
2022/10/27 04:33:54;;;;;;;53.00;27.13;;;;;;;14.70;100.00;100742.53;5063117;28;20086;-75
2022/10/27 04:36:20;;;;;;;47.20;27.48;;;;;;;14.75;100.00;100740.31;5080591;28;20064;-75
2022/10/27 04:38:49;;;;;;;47.58;27.60;;;;;;;14.81;100.00;100739.72;5082404;28;20031;-75
2022/10/27 04:41:15;;;;;;;51.28;28.52;;;;;;;14.79;100.00;100746.16;5080082;28;20126;-75
2022/10/27 04:43:40;;;;;;;46.08;29.20;;;;;;;14.70;100.00;100748.69;5083203;28;20059;-76
2022/10/27 04:46:05;;;;;;;47.53;28.52;;;;;;;14.68;100.00;100749.81;5062155;28;20032;-77
2022/10/27 04:48:31;;;;;;;51.45;29.17;;;;;;;14.72;100.00;100746.75;5081705;28;20112;-76
2022/10/27 04:50:56;;;;;;;50.38;29.40;;;;;;;14.59;100.00;100750.66;5080847;28;20499;-75
2022/10/27 04:53:22;;;;;;;52.60;28.42;;;;;;;14.57;100.00;100752.59;5080593;28;20044;-76
2022/10/27 04:55:49;;;;;;;45.15;28.42;;;;;;;14.50;100.00;100756.78;5085160;22;20135;-72
2022/10/27 04:58:15;;;;;;;48.22;28.10;;;;;;;14.46;100.00;100761.53;4331304;28;10000710;-73
2022/10/27 05:00:41;;;;;;;49.83;28.23;;;;;;;14.34;100.00;100774.06;5019372;28;20045;-73
2022/10/27 05:03:07;;;;;;;51.65;29.73;;;;;;;14.31;100.00;100766.38;5022993;28;20045;-75
2022/10/27 05:05:33;;;;;;;48.95;28.50;;;;;;;14.21;100.00;100772.66;5019360;28;20069;-74
2022/10/27 05:08:00;;;;;;;48.38;28.17;;;;;;;14.17;100.00;100772.09;5021488;28;20105;-75
2022/10/27 05:10:26;;;;;;;43.92;27.60;;;;;;;14.12;100.00;100763.69;5020963;28;20026;-74
2022/10/27 05:12:51;;;;;;;50.45;28.85;;;;;;;14.09;100.00;100771.91;5020364;28;20042;-74
2022/10/27 05:15:17;;;;;;;50.92;29.05;;;;;;;14.08;100.00;100767.59;5022182;28;20033;-75
2022/10/27 05:17:42;;;;;;;44.90;28.30;;;;;;;14.07;100.00;100775.69;5019091;28;20450;-75
2022/10/27 05:20:09;;;;;;;44.65;28.10;;;;;;;14.05;100.00;100773.19;5022801;28;20034;-76
2022/10/27 05:22:34;;;;;;;41.78;28.13;;;;;;;14.03;100.00;100775.13;5019362;28;20443;-75
2022/10/27 05:25:00;;;;;;;42.88;27.95;;;;;;;14.04;100.00;100784.75;5021634;28;20057;-77
2022/10/27 05:27:26;;;;;;;40.83;27.85;;;;;;;14.09;100.00;100773.72;5022596;28;20076;-75
2022/10/27 05:29:51;;;;;;;42.28;28.67;;;;;;;14.15;100.00;100778.50;5020514;28;20034;-75
2022/10/27 05:32:17;;;;;;;40.20;28.33;;;;;;;14.20;100.00;100782.41;5022154;28;20168;-76
2022/10/27 05:34:42;;;;;;;40.78;28.33;;;;;;;14.24;100.00;100778.53;5018997;28;20029;-75
2022/10/27 05:37:08;;;;;;;46.13;27.92;;;;;;;14.18;100.00;100773.78;5018962;28;20026;-75
2022/10/27 05:39:33;;;;;;;41.97;27.08;;;;;;;14.21;100.00;100784.09;5020529;28;20844;-74
2022/10/27 05:41:59;;;;;;;44.53;27.30;;;;;;;14.24;100.00;100775.03;5020011;28;20390;-73
2022/10/27 05:44:24;;;;;;;48.88;28.45;;;;;;;14.27;100.00;100782.72;5022952;28;20037;-74
2022/10/27 05:46:50;;;;;;;46.90;29.20;;;;;;;14.28;100.00;100790.56;5019855;28;20466;-74
2022/10/27 05:49:15;;;;;;;44.83;29.20;;;;;;;14.27;100.00;100788.88;5021499;28;20037;-73
2022/10/27 05:51:42;;;;;;;43.08;27.77;;;;;;;14.29;100.00;100783.44;5016790;28;20398;-72
2022/10/27 05:54:08;;;;;;;44.70;29.42;;;;;;;14.31;100.00;100786.81;5019979;28;20033;-72
2022/10/27 05:56:34;;;;;;;41.30;25.88;;;;;;;14.32;100.00;100786.63;5017199;28;20046;-73
2022/10/27 05:59:00;;;;;;;47.20;27.92;;;;;;;14.34;100.00;100790.00;5019946;28;20034;-74
2022/10/27 06:01:25;;;;;;;41.85;28.05;;;;;;;14.38;100.00;100789.75;5021688;28;20045;-74
2022/10/27 06:03:50;;;;;;;41.38;28.75;;;;;;;14.39;100.00;100799.41;5020060;28;20850;-74
2022/10/27 06:06:16;;;;;;;42.20;26.20;;;;;;;14.43;100.00;100793.69;5021862;28;20034;-73
2022/10/27 06:08:41;;;;;;;50.63;28.30;;;;;;;14.45;100.00;100791.72;5024284;28;20071;-74
2022/10/27 06:11:07;;;;;;;49.90;29.33;;;;;;;14.31;100.00;100790.28;5025412;28;20105;-73
2022/10/27 06:13:33;;;;;;;54.92;28.38;;;;;;;14.23;100.00;100798.09;5022624;28;20101;-73
2022/10/27 06:15:58;;;;;;;52.17;29.42;;;;;;;14.39;100.00;100807.38;5024776;28;20382;-74
2022/10/27 06:18:24;;;;;;;50.22;29.02;;;;;;;14.40;100.00;100814.38;5024403;28;20033;-74
2022/10/27 06:20:49;;;;;;;50.05;28.13;;;;;;;14.32;100.00;100813.19;5022788;28;20038;-74
2022/10/27 06:23:15;;;;;;;55.90;29.77;;;;;;;14.34;100.00;100824.53;5024958;28;20034;-74
2022/10/27 06:25:40;;;;;;;49.17;29.20;;;;;;;14.39;100.00;100823.31;5021649;28;20397;-73
2022/10/27 06:28:06;;;;;;;52.20;28.15;;;;;;;14.35;100.00;100823.56;5023820;28;20057;-74
2022/10/27 06:30:31;;;;;;;49.55;29.67;;;;;;;14.33;100.00;100825.50;5026075;28;20508;-75
2022/10/27 06:32:57;;;;;;;46.55;28.13;;;;;;;14.34;100.00;100835.16;5023997;28;20068;-74
2022/10/27 06:35:22;;;;;;;48.40;28.67;;;;;;;14.40;100.00;100839.09;5024096;28;20470;-73
2022/10/27 06:37:51;;;;;;;54.53;28.83;;;;;;;14.35;100.00;100839.50;5020561;28;20026;-74
2022/10/27 06:40:18;;;;;;;55.13;29.25;;;;;;;14.35;100.00;100843.97;5024233;28;20030;-73
2022/10/27 06:42:46;;;;;;;49.25;28.98;;;;;;;14.44;100.00;100844.97;5020974;28;20156;-74
2022/10/27 06:45:12;;;;;;;51.28;27.92;;;;;;;14.55;100.00;100842.22;5024975;28;20041;-73
2022/10/27 06:47:38;;;;;;;49.08;26.77;;;;;;;14.60;100.00;100847.97;5017085;28;20026;-76
2022/10/27 06:50:05;;;;;;;52.95;27.33;;;;;;;14.65;100.00;100851.06;5024398;28;20036;-76
2022/10/27 06:52:35;;;;;;;46.63;25.67;;;;;;;14.70;100.00;100857.63;5022234;28;20037;-73
2022/10/27 06:55:00;;;;;;;46.80;25.57;;;;;;;14.71;100.00;100866.44;5023695;28;20034;-74
2022/10/27 06:57:26;;;;;;;44.22;25.05;;;;;;;14.77;100.00;100865.91;5022427;28;20044;-74
2022/10/27 06:59:51;;;;;;;48.95;26.20;;;;;;;14.80;100.00;100865.59;5022280;28;20386;-73
2022/10/27 07:02:16;;;;;;;47.20;26.75;;;;;;;14.66;100.00;100868.69;5024198;28;20029;-75
2022/10/27 07:04:42;;;;;;;48.58;25.23;;;;;;;14.60;100.00;100879.84;5021002;28;20038;-74
2022/10/27 07:07:07;;;;;;;39.78;25.58;;;;;;;14.67;100.00;100878.28;5024599;28;20367;-76
2022/10/27 07:09:33;;;;;;;42.50;26.65;;;;;;;14.73;100.00;100885.72;5020156;28;20037;-73
2022/10/27 07:11:58;;;;;;;50.78;28.85;;;;;;;14.72;100.00;100897.34;5026487;28;20025;-75
2022/10/27 07:14:23;;;;;;;45.33;26.15;;;;;;;14.68;100.00;100899.41;5024504;28;20037;-74
2022/10/27 07:16:49;;;;;;;44.40;26.15;;;;;;;14.70;100.00;100899.28;5015648;28;20062;-74
2022/10/27 07:19:15;;;;;;;51.58;27.55;;;;;;;14.45;100.00;100897.13;5015633;28;20026;-74
2022/10/27 07:21:40;;;;;;;51.28;27.67;;;;;;;14.44;100.00;100911.38;5020263;28;20033;-75
2022/10/27 07:24:06;;;;;;;44.53;28.65;;;;;;;14.43;100.00;100904.41;5024134;28;20474;-75
2022/10/27 07:26:31;;;;;;;49.42;27.50;;;;;;;14.46;100.00;100914.75;5020931;28;20030;-75
2022/10/27 07:28:57;;;;;;;50.05;28.10;;;;;;;14.40;100.00;100908.16;5024253;28;20038;-76
2022/10/27 07:31:22;;;;;;;50.03;27.77;;;;;;;14.56;100.00;100910.28;5025557;28;20064;-75
2022/10/27 07:33:48;;;;;;;46.22;27.65;;;;;;;14.73;100.00;100913.13;5019852;28;20026;-74
2022/10/27 07:36:13;;;;;;;48.03;27.63;;;;;;;14.84;100.00;100909.53;5022988;28;20508;-75
2022/10/27 07:38:39;;;;;;;49.15;28.63;;;;;;;14.91;100.00;100920.44;5020390;28;20068;-74
2022/10/27 07:41:05;;;;;;;46.00;27.40;;;;;;;14.89;100.00;100907.31;5021130;28;20040;-76
2022/10/27 07:43:30;;;;;;;48.15;28.20;;;;;;;14.95;100.00;100917.41;5022160;28;20041;-75
2022/10/27 07:45:57;;;;;;;46.75;27.65;;;;;;;15.08;100.00;100923.25;5022054;28;20060;-74
2022/10/27 07:48:22;;;;;;;45.55;27.08;;;;;;;15.12;100.00;100919.38;5021229;28;20061;-75
2022/10/27 07:50:48;;;;;;;46.28;26.70;;;;;;;15.20;100.00;100923.97;5022986;28;20108;-75
2022/10/27 07:53:17;;;;;;;57.03;29.00;;;;;;;15.24;100.00;100921.88;5020801;28;20061;-75
2022/10/27 07:55:43;;;;;;;47.55;26.75;;;;;;;15.31;100.00;100923.03;5023526;28;20136;-74
2022/10/27 07:58:11;;;;;;;52.05;30.17;;;;;;;15.41;100.00;100929.16;5023357;28;20112;-76
2022/10/27 08:00:39;;;;;;;40.80;25.55;;;;;;;15.50;100.00;100933.63;5023845;28;20030;-76
2022/10/27 08:03:06;;;;;;;43.35;27.45;;;;;;;15.50;100.00;100937.13;5023129;28;20116;-76
2022/10/27 08:05:34;;;;;;;47.67;27.08;;;;;;;15.48;100.00;100946.25;5020833;28;20547;-76
2022/10/27 08:08:02;;;;;;;45.65;26.55;;;;;;;15.43;100.00;100953.81;5022238;28;20033;-76
2022/10/27 08:10:30;;;;;;;49.13;29.50;;;;;;;15.54;100.00;100954.56;5021279;28;20120;-75
2022/10/27 08:12:56;;;;;;;47.85;28.52;;;;;;;15.37;100.00;100954.38;5021222;28;20034;-76
2022/10/27 08:15:21;;;;;;;50.00;28.75;;;;;;;15.40;100.00;100959.41;5022273;28;20041;-76
2022/10/27 08:17:51;;;;;;;54.00;28.70;;;;;;;15.42;100.00;100952.13;5020101;28;20037;-76
2022/10/27 08:20:17;;;;;;;42.10;26.45;;;;;;;15.52;100.00;100953.00;5021406;28;20445;-75
2022/10/27 08:22:42;;;;;;;46.97;27.45;;;;;;;15.60;100.00;100955.81;5019560;28;20030;-74
2022/10/27 08:25:08;;;;;;;42.53;26.50;;;;;;;15.60;100.00;100966.44;5022686;28;20032;-75
2022/10/27 08:27:33;;;;;;;47.05;27.42;;;;;;;15.60;100.00;100953.16;5019682;28;20402;-75
2022/10/27 08:29:59;;;;;;;47.85;26.88;;;;;;;15.69;100.00;100943.47;5021826;28;20029;-76
2022/10/27 08:32:24;;;;;;;52.47;28.15;;;;;;;15.71;100.00;100953.00;5021550;28;20063;-76
2022/10/27 08:34:50;;;;;;;52.05;27.15;;;;;;;15.75;100.00;100949.06;5020231;28;20052;-76
2022/10/27 08:37:15;;;;;;;43.15;27.60;;;;;;;15.82;100.00;100952.84;5023114;28;20083;-75
2022/10/27 08:39:40;;;;;;;47.63;28.55;;;;;;;15.78;100.00;100954.09;5019160;28;20030;-74
2022/10/27 08:42:40;;;;;;;50.42;28.40;;;;;;;15.63;100.00;100960.81;5022526;28;20029;-75
2022/10/27 08:45:14;;;;;;;44.47;28.70;;;;;;;15.77;100.00;100962.22;5022208;28;20053;-75
2022/10/27 08:47:40;;;;;;;45.35;26.73;;;;;;;15.91;100.00;100965.28;5019114;28;20045;-74
2022/10/27 08:50:15;;;;;;;42.55;27.33;;;;;;;16.04;100.00;100966.78;5022499;28;20029;-75
2022/10/27 08:53:04;;;;;;;47.20;28.92;;;;;;;16.13;100.00;100963.28;5019347;28;20038;-75
2022/10/27 08:55:39;;;;;;;50.25;28.40;;;;;;;16.14;100.00;100959.63;5021417;28;20042;-75
2022/10/27 08:58:12;;;;;;;49.78;28.42;;;;;;;16.28;100.00;100948.50;5019587;28;20038;-74
2022/10/27 09:01:00;;;;;;;48.25;29.20;;;;;;;16.32;100.00;100955.22;5022620;28;20091;-75
2022/10/27 09:04:07;;;;;;;46.10;28.05;;;;;;;16.35;100.00;100957.59;5021307;28;20038;-76
2022/10/27 09:06:42;;;;;;;42.80;28.23;;;;;;;16.37;100.00;100955.63;5021580;28;20049;-74
2022/10/27 09:09:18;;;;;;;50.88;29.50;;;;;;;16.37;100.00;100960.97;5019123;28;20065;-75
2022/10/27 09:11:56;;;;;;;49.58;28.50;;;;;;;16.52;100.00;100958.66;5019007;28;20032;-75
2022/10/27 09:14:46;;;;;;;47.80;28.77;;;;;;;16.66;100.00;100956.38;5021410;28;20041;-73
2022/10/27 09:17:26;;;;;;;50.47;28.17;;;;;;;16.76;100.00;100962.50;5038220;28;20050;-74
2022/10/27 09:20:07;;;;;;;48.28;28.13;;;;;;;16.83;100.00;100961.91;5019984;28;20026;-73
2022/10/27 09:22:36;;;;;;;43.55;28.20;;;;;;;16.93;100.00;100957.34;5016470;28;20052;-73
2022/10/27 09:25:04;;;;;;;45.83;28.30;;;;;;;16.99;100.00;100962.06;5021699;28;20029;-76
2022/10/27 09:27:31;;;;;;;40.63;26.17;;;;;;;16.98;100.00;100960.38;5021037;28;20034;-74
2022/10/27 09:30:04;;;;;;;41.97;26.77;;;;;;;17.02;100.00;100956.47;5021861;28;20026;-76
2022/10/27 09:32:34;;;;;;;47.55;27.67;;;;;;;17.06;100.00;100952.50;5017248;28;20115;-75
2022/10/27 09:35:03;;;;;;;40.70;26.75;;;;;;;17.12;100.00;100947.41;5021866;28;20073;-75
2022/10/27 09:37:31;;;;;;;45.05;26.60;;;;;;;17.20;100.00;100954.63;5023842;28;20125;-75
2022/10/27 09:39:57;;;;;;;43.67;27.60;;;;;;;17.25;100.00;100960.38;5023972;28;20151;-75
2022/10/27 09:42:23;;;;;;;46.97;28.13;;;;;;;17.31;100.00;100959.75;5023513;28;20494;-76
2022/10/27 09:44:57;;;;;;;44.38;27.27;;;;;;;17.34;100.00;100946.09;5024487;28;20112;-76
2022/10/27 09:47:26;;;;;;;45.50;28.02;;;;;;;17.39;100.00;100954.47;5022087;28;20037;-75
2022/10/27 09:49:54;;;;;;;47.63;26.58;;;;;;;17.45;100.00;100948.53;5024169;28;20121;-75
2022/10/27 09:52:28;;;;;;;40.53;26.35;;;;;;;17.51;100.00;100953.25;5022989;28;20032;-76
2022/10/27 09:54:55;;;;;;;45.45;28.00;;;;;;;17.58;100.00;100954.31;5024213;28;20120;-76
2022/10/27 09:57:26;;;;;;;42.70;26.33;;;;;;;17.63;100.00;100947.72;5022958;28;20046;-75
2022/10/27 10:00:14;;;;;;;48.38;27.65;;;;;;;17.70;100.00;100952.28;5025832;28;20031;-76
2022/10/27 10:03:01;;;;;;;41.05;26.10;;;;;;;17.77;100.00;100947.16;5025616;28;20121;-76
2022/10/27 10:05:33;;;;;;;40.70;27.80;;;;;;;17.80;100.00;100941.50;5015001;28;20037;-75
2022/10/27 10:08:34;;;;;;;42.50;26.45;;;;;;;17.79;100.00;100946.00;5024003;28;20029;-76
2022/10/27 10:11:05;;;;;;;43.53;27.08;;;;;;;17.85;100.00;100944.53;5020421;28;20399;-75
2022/10/27 10:13:32;;;;;;;40.15;25.13;;;;;;;17.86;100.00;100952.41;5022563;28;20044;-76
2022/10/27 10:16:13;;;;;;;38.33;25.05;;;;;;;17.79;100.00;100950.53;5024018;28;20034;-75
2022/10/27 10:18:42;;;;;;;39.10;25.38;;;;;;;17.90;100.00;100947.59;5021269;28;20033;-74
2022/10/27 10:21:10;;;;;;;37.20;25.85;;;;;;;17.97;100.00;100943.28;5023513;28;20033;-75
2022/10/27 10:23:48;;;;;;;43.95;26.38;;;;;;;18.02;100.00;100946.34;5021898;28;20038;-75
2022/10/27 10:26:23;;;;;;;48.05;25.70;;;;;;;18.05;100.00;100946.03;5021697;28;20125;-74
2022/10/27 10:28:51;;;;;;;42.35;26.20;;;;;;;18.09;100.00;100942.03;5021414;28;20122;-73
2022/10/27 10:31:24;;;;;;;38.67;24.95;;;;;;;18.15;100.00;100936.06;5024590;28;20029;-74
2022/10/27 10:33:52;;;;;;;44.05;24.67;;;;;;;18.17;100.00;100931.41;5021827;28;20839;-73
2022/10/27 10:36:23;;;;;;;37.75;25.48;;;;;;;18.25;100.00;100935.97;5024134;28;20052;-73
2022/10/27 10:38:50;;;;;;;35.70;23.80;;;;;;;18.30;100.00;100934.50;5021538;28;20029;-73
2022/10/27 10:41:20;;;;;;;45.20;25.15;;;;;;;18.36;100.00;100939.22;5024201;28;20030;-76
2022/10/27 10:44:06;;;;;;;41.08;23.55;;;;;;;18.41;100.00;100922.69;5021082;28;20038;-75
2022/10/27 10:46:34;;;;;;;41.40;25.00;;;;;;;18.46;100.00;100931.06;5021778;28;20397;-75
2022/10/27 10:49:00;;;;;;;38.05;23.95;;;;;;;18.53;100.00;100923.25;5022005;28;20075;-75
2022/10/27 10:51:29;;;;;;;42.63;25.00;;;;;;;18.58;100.00;100926.28;5022323;28;20060;-76
2022/10/27 10:54:13;;;;;;;40.22;24.00;;;;;;;18.65;100.00;100924.66;5021909;28;20034;-74
2022/10/27 10:56:39;;;;;;;36.00;23.48;;;;;;;18.69;100.00;100917.97;5020753;28;20042;-74
2022/10/27 10:59:14;;;;;;;41.03;24.73;;;;;;;18.69;100.00;100909.94;5023787;28;20537;-74
2022/10/27 11:01:54;;;;;;;37.25;22.75;;;;;;;18.75;100.00;100907.47;5021199;28;20567;-74
2022/10/27 11:04:26;;;;;;;35.33;21.40;;;;;;;18.84;100.00;100910.19;5022051;28;20030;-73
2022/10/27 11:07:04;;;;;;;39.58;22.20;;;;;;;18.91;100.00;100895.16;5022594;28;20140;-74
2022/10/27 11:09:43;;;;;;;36.17;22.77;;;;;;;18.95;100.00;100902.69;5022738;28;20034;-73
2022/10/27 11:12:35;;;;;;;44.67;22.85;;;;;;;19.03;100.00;100893.81;5019262;28;20124;-74